HUN81 LFMN-LHBP
Flight info
| Callsign | HUN81 |
|---|---|
| Flight time | 1h 19m |
| Altitude | 36000 |
| Route | BASIP DCT ANAKI DCT BABAG/N0441F350 DCT KOPRY DCT ULZAK |
| Aircraft | A320/M-SDE2E3FGHIJ2J5RWXY/LB1 |
Departure
| Time | 2026-05-07 20:45 |
|---|---|
| Airport | Nice-Côte d'Azur Airport (LFMN) |
Arrival
| Time | 2026-05-07 22:05 |
|---|---|
| Airport | Budapest Liszt Ferenc International Airport (LHBP) |
| Time | Latitude | Longitude | Altitude | Speed | Heading |
|---|---|---|---|---|---|
| 2026-05-07 20:24 | 43.66244 | 7.20603 | 12 ft | 0 kts | 228° |
| 2026-05-07 20:33 | 43.66248 | 7.20609 | 12 ft | 2 kts | 226° |
| 2026-05-07 20:33 | 43.66259 | 7.20625 | 12 ft | 2 kts | 227° |
| 2026-05-07 20:34 | 43.66270 | 7.20642 | 13 ft | 2 kts | 227° |
| 2026-05-07 20:34 | 43.66281 | 7.20659 | 13 ft | 2 kts | 227° |
| 2026-05-07 20:34 | 43.66293 | 7.20676 | 14 ft | 2 kts | 229° |
| 2026-05-07 20:34 | 43.66300 | 7.20695 | 14 ft | 2 kts | 274° |
| 2026-05-07 20:35 | 43.66299 | 7.20718 | 15 ft | 2 kts | 270° |
| 2026-05-07 20:35 | 43.66300 | 7.20741 | 15 ft | 2 kts | 263° |
| 2026-05-07 20:35 | 43.66302 | 7.20763 | 15 ft | 2 kts | 256° |
| 2026-05-07 20:35 | 43.66306 | 7.20785 | 13 ft | 2 kts | 262° |
| 2026-05-07 20:36 | 43.66308 | 7.20808 | 13 ft | 2 kts | 261° |
| 2026-05-07 20:36 | 43.66310 | 7.20826 | 12 ft | 0 kts | 257° |
| 2026-05-07 20:39 | 43.66310 | 7.20824 | 12 ft | 2 kts | 257° |
| 2026-05-07 20:39 | 43.66282 | 7.20767 | 12 ft | 12 kts | 200° |
| 2026-05-07 20:39 | 43.66175 | 7.20781 | 13 ft | 16 kts | 170° |
| 2026-05-07 20:39 | 43.66064 | 7.20807 | 14 ft | 16 kts | 170° |
| 2026-05-07 20:40 | 43.65958 | 7.20830 | 12 ft | 15 kts | 170° |
| 2026-05-07 20:40 | 43.65862 | 7.20853 | 12 ft | 13 kts | 170° |
| 2026-05-07 20:40 | 43.65785 | 7.20871 | 12 ft | 8 kts | 171° |
| 2026-05-07 20:40 | 43.65742 | 7.20880 | 12 ft | 5 kts | 171° |
| 2026-05-07 20:41 | 43.65681 | 7.20893 | 13 ft | 14 kts | 171° |
| 2026-05-07 20:41 | 43.65579 | 7.20917 | 17 ft | 14 kts | 169° |
| 2026-05-07 20:41 | 43.65487 | 7.20937 | 17 ft | 13 kts | 171° |
| 2026-05-07 20:41 | 43.65394 | 7.20957 | 13 ft | 13 kts | 176° |
| 2026-05-07 20:42 | 43.65321 | 7.20916 | 14 ft | 11 kts | 220° |
| 2026-05-07 20:42 | 43.65263 | 7.20838 | 13 ft | 15 kts | 224° |
| 2026-05-07 20:42 | 43.65172 | 7.20716 | 14 ft | 20 kts | 225° |
| 2026-05-07 20:42 | 43.65067 | 7.20576 | 14 ft | 22 kts | 223° |
| 2026-05-07 20:43 | 43.64961 | 7.20425 | 14 ft | 22 kts | 224° |
| 2026-05-07 20:43 | 43.64857 | 7.20279 | 14 ft | 17 kts | 226° |
| 2026-05-07 20:43 | 43.64791 | 7.20194 | 14 ft | 10 kts | 212° |
| 2026-05-07 20:43 | 43.64736 | 7.20194 | 17 ft | 6 kts | 150° |
| 2026-05-07 20:44 | 43.64718 | 7.20216 | 17 ft | 4 kts | 137° |
| 2026-05-07 20:44 | 43.64695 | 7.20249 | 18 ft | 6 kts | 131° |
| 2026-05-07 20:44 | 43.64712 | 7.20302 | 19 ft | 9 kts | 43° |
| 2026-05-07 20:44 | 43.64772 | 7.20386 | 19 ft | 17 kts | 45° |
| 2026-05-07 20:45 | 43.65020 | 7.20726 | 18 ft | 87 kts | 45° |
| 2026-05-07 20:45 | 43.65603 | 7.21527 | 20 ft | 146 kts | 45° |
| 2026-05-07 20:45 | 43.66407 | 7.22631 | 362 ft | 167 kts | 47° |
| 2026-05-07 20:45 | 43.66923 | 7.24062 | 1041 ft | 173 kts | 82° |
| 2026-05-07 20:46 | 43.66780 | 7.25710 | 1740 ft | 177 kts | 112° |
| 2026-05-07 20:46 | 43.65996 | 7.27112 | 2103 ft | 199 kts | 146° |
| 2026-05-07 20:46 | 43.64842 | 7.28356 | 2516 ft | 217 kts | 135° |
| 2026-05-07 20:46 | 43.63820 | 7.29917 | 3268 ft | 221 kts | 126° |
| 2026-05-07 20:47 | 43.63193 | 7.31860 | 3998 ft | 226 kts | 97° |
| 2026-05-07 20:47 | 43.63430 | 7.33983 | 4785 ft | 227 kts | 68° |
| 2026-05-07 20:47 | 43.64020 | 7.35982 | 5572 ft | 229 kts | 68° |
| 2026-05-07 20:47 | 43.64606 | 7.38062 | 6363 ft | 231 kts | 69° |
| 2026-05-07 20:48 | 43.65172 | 7.40147 | 7098 ft | 233 kts | 70° |
| 2026-05-07 20:48 | 43.65353 | 7.40829 | 7340 ft | 234 kts | 70° |
| 2026-05-07 20:49 | 43.68613 | 7.53278 | 10710 ft | 284 kts | 70° |
| 2026-05-07 20:49 | 43.69335 | 7.55981 | 10947 ft | 308 kts | 70° |
| 2026-05-07 20:50 | 43.70092 | 7.58823 | 11154 ft | 331 kts | 70° |
| 2026-05-07 20:50 | 43.70908 | 7.61895 | 11485 ft | 348 kts | 70° |
| 2026-05-07 20:50 | 43.71749 | 7.65066 | 12103 ft | 354 kts | 70° |
| 2026-05-07 20:50 | 43.72602 | 7.68282 | 12775 ft | 359 kts | 70° |
| 2026-05-07 20:51 | 43.73640 | 7.71440 | 13427 ft | 365 kts | 58° |
| 2026-05-07 20:51 | 43.75218 | 7.74215 | 14057 ft | 370 kts | 49° |
| 2026-05-07 20:51 | 43.76934 | 7.76886 | 14659 ft | 374 kts | 49° |
| 2026-05-07 20:51 | 43.78668 | 7.79586 | 15265 ft | 378 kts | 49° |
| 2026-05-07 20:52 | 43.80419 | 7.82319 | 15868 ft | 381 kts | 49° |
| 2026-05-07 20:52 | 43.82183 | 7.85081 | 16464 ft | 385 kts | 49° |
| 2026-05-07 20:52 | 43.83964 | 7.87877 | 17044 ft | 389 kts | 49° |
| 2026-05-07 20:52 | 43.85788 | 7.90747 | 17644 ft | 393 kts | 49° |
| 2026-05-07 20:53 | 43.87425 | 7.93791 | 18190 ft | 397 kts | 59° |
| 2026-05-07 20:53 | 43.88813 | 7.97056 | 18677 ft | 400 kts | 60° |
| 2026-05-07 20:53 | 43.90224 | 8.00404 | 19157 ft | 404 kts | 60° |
| 2026-05-07 20:53 | 43.91641 | 8.03785 | 19622 ft | 408 kts | 60° |
| 2026-05-07 20:54 | 43.93071 | 8.07210 | 20078 ft | 412 kts | 60° |
| 2026-05-07 20:54 | 43.94513 | 8.10669 | 20538 ft | 416 kts | 60° |
| 2026-05-07 20:54 | 43.95968 | 8.14159 | 20991 ft | 420 kts | 60° |
| 2026-05-07 20:54 | 43.97437 | 8.17685 | 21433 ft | 423 kts | 59° |
| 2026-05-07 20:55 | 43.98921 | 8.21241 | 21874 ft | 427 kts | 59° |
| 2026-05-07 20:55 | 44.00416 | 8.24824 | 22298 ft | 431 kts | 59° |
| 2026-05-07 20:55 | 44.01925 | 8.28444 | 22728 ft | 435 kts | 59° |
| 2026-05-07 20:55 | 44.03444 | 8.32097 | 23143 ft | 438 kts | 59° |
| 2026-05-07 20:56 | 44.04974 | 8.35783 | 23559 ft | 442 kts | 59° |
| 2026-05-07 20:56 | 44.06517 | 8.39503 | 23905 ft | 446 kts | 59° |
| 2026-05-07 20:56 | 44.08069 | 8.43254 | 24242 ft | 449 kts | 59° |
| 2026-05-07 20:56 | 44.09632 | 8.47035 | 24579 ft | 453 kts | 59° |
| 2026-05-07 20:57 | 44.11206 | 8.50845 | 24903 ft | 456 kts | 59° |
| 2026-05-07 20:57 | 44.12790 | 8.54684 | 25222 ft | 459 kts | 59° |
| 2026-05-07 20:57 | 44.14382 | 8.58556 | 25534 ft | 463 kts | 59° |
| 2026-05-07 20:57 | 44.15980 | 8.62459 | 25846 ft | 466 kts | 59° |
| 2026-05-07 20:58 | 44.17590 | 8.66399 | 26153 ft | 469 kts | 59° |
| 2026-05-07 20:58 | 44.19211 | 8.70367 | 26465 ft | 473 kts | 59° |
| 2026-05-07 20:58 | 44.20683 | 8.74480 | 26761 ft | 477 kts | 67° |
| 2026-05-07 20:58 | 44.21946 | 8.78773 | 27050 ft | 480 kts | 67° |
| 2026-05-07 20:59 | 44.23215 | 8.83097 | 27341 ft | 484 kts | 67° |
| 2026-05-07 20:59 | 44.24493 | 8.87457 | 27630 ft | 487 kts | 67° |
| 2026-05-07 20:59 | 44.25778 | 8.91848 | 27917 ft | 491 kts | 67° |
| 2026-05-07 20:59 | 44.27069 | 8.96271 | 28194 ft | 494 kts | 67° |
| 2026-05-07 21:00 | 44.28367 | 9.00725 | 28465 ft | 497 kts | 67° |
| 2026-05-07 21:00 | 44.29673 | 9.05206 | 28721 ft | 500 kts | 67° |
| 2026-05-07 21:00 | 44.30987 | 9.09723 | 28977 ft | 504 kts | 67° |
| 2026-05-07 21:00 | 44.32303 | 9.14269 | 29218 ft | 507 kts | 67° |
| 2026-05-07 21:01 | 44.33627 | 9.18849 | 29477 ft | 510 kts | 67° |
| 2026-05-07 21:01 | 44.34957 | 9.23455 | 29730 ft | 513 kts | 67° |
| 2026-05-07 21:01 | 44.36294 | 9.28085 | 29962 ft | 516 kts | 67° |
| 2026-05-07 21:01 | 44.37642 | 9.32759 | 30160 ft | 520 kts | 66° |
| 2026-05-07 21:02 | 44.38989 | 9.37450 | 30455 ft | 520 kts | 67° |
| 2026-05-07 21:02 | 44.40330 | 9.42137 | 30820 ft | 519 kts | 67° |
| 2026-05-07 21:02 | 44.41668 | 9.46818 | 31187 ft | 518 kts | 67° |
| 2026-05-07 21:02 | 44.43006 | 9.51503 | 31511 ft | 518 kts | 67° |
| 2026-05-07 21:03 | 44.44340 | 9.56181 | 31837 ft | 517 kts | 67° |
| 2026-05-07 21:03 | 44.45672 | 9.60862 | 32163 ft | 517 kts | 67° |
| 2026-05-07 21:03 | 44.47000 | 9.65538 | 32510 ft | 517 kts | 67° |
| 2026-05-07 21:03 | 44.48326 | 9.70213 | 32807 ft | 517 kts | 67° |
| 2026-05-07 21:04 | 44.49654 | 9.74894 | 33127 ft | 517 kts | 67° |
| 2026-05-07 21:04 | 44.50975 | 9.79573 | 33438 ft | 516 kts | 68° |
| 2026-05-07 21:04 | 44.52292 | 9.84253 | 33770 ft | 516 kts | 67° |
| 2026-05-07 21:04 | 44.53604 | 9.88925 | 34074 ft | 516 kts | 67° |
| 2026-05-07 21:05 | 44.54915 | 9.93600 | 34348 ft | 515 kts | 67° |
| 2026-05-07 21:05 | 44.56226 | 9.98278 | 34651 ft | 515 kts | 67° |
| 2026-05-07 21:05 | 44.57533 | 10.02946 | 34944 ft | 514 kts | 68° |
| 2026-05-07 21:05 | 44.58834 | 10.07603 | 35220 ft | 513 kts | 68° |
| 2026-05-07 21:06 | 44.60133 | 10.12262 | 35492 ft | 512 kts | 68° |
| 2026-05-07 21:06 | 44.61426 | 10.16909 | 35771 ft | 511 kts | 68° |
| 2026-05-07 21:06 | 44.62714 | 10.21547 | 35975 ft | 510 kts | 68° |
| 2026-05-07 21:07 | 44.65281 | 10.30822 | 36010 ft | 509 kts | 68° |
| 2026-05-07 21:07 | 44.67837 | 10.40097 | 36014 ft | 509 kts | 68° |
| 2026-05-07 21:08 | 44.70385 | 10.49380 | 36019 ft | 509 kts | 68° |
| 2026-05-07 21:08 | 44.72925 | 10.58662 | 36031 ft | 509 kts | 68° |
| 2026-05-07 21:09 | 44.75457 | 10.67963 | 36038 ft | 509 kts | 68° |
| 2026-05-07 21:09 | 44.77985 | 10.77265 | 36048 ft | 509 kts | 68° |
| 2026-05-07 21:10 | 44.80506 | 10.86565 | 36052 ft | 508 kts | 68° |
| 2026-05-07 21:10 | 44.83011 | 10.95870 | 36052 ft | 508 kts | 68° |
| 2026-05-07 21:11 | 44.85508 | 11.05183 | 36048 ft | 508 kts | 68° |
| 2026-05-07 21:11 | 44.89236 | 11.19159 | 36045 ft | 508 kts | 68° |
| 2026-05-07 21:12 | 44.91713 | 11.28471 | 36047 ft | 507 kts | 68° |
| 2026-05-07 21:12 | 44.94184 | 11.37799 | 36050 ft | 507 kts | 68° |
| 2026-05-07 21:13 | 44.96641 | 11.47124 | 36052 ft | 507 kts | 68° |
| 2026-05-07 21:13 | 44.99088 | 11.56453 | 36050 ft | 506 kts | 68° |
| 2026-05-07 21:14 | 45.01533 | 11.65781 | 36050 ft | 506 kts | 68° |
| 2026-05-07 21:14 | 45.03969 | 11.75116 | 36043 ft | 506 kts | 68° |
| 2026-05-07 21:15 | 45.06386 | 11.84454 | 36040 ft | 506 kts | 69° |
| 2026-05-07 21:15 | 45.08802 | 11.93795 | 36038 ft | 505 kts | 69° |
| 2026-05-07 21:16 | 45.10807 | 12.01558 | 36036 ft | 505 kts | 69° |
| 2026-05-07 21:16 | 45.13206 | 12.10902 | 36034 ft | 505 kts | 69° |
| 2026-05-07 21:17 | 45.15597 | 12.20261 | 36035 ft | 505 kts | 69° |
| 2026-05-07 21:17 | 45.17972 | 12.29623 | 36041 ft | 505 kts | 69° |
| 2026-05-07 21:18 | 45.20343 | 12.38984 | 36043 ft | 505 kts | 69° |
| 2026-05-07 21:18 | 45.22714 | 12.48353 | 36045 ft | 505 kts | 69° |
| 2026-05-07 21:19 | 45.25080 | 12.57724 | 36046 ft | 504 kts | 69° |
| 2026-05-07 21:19 | 45.27427 | 12.67103 | 36046 ft | 504 kts | 69° |
| 2026-05-07 21:20 | 45.29760 | 12.76486 | 36042 ft | 504 kts | 69° |
| 2026-05-07 21:20 | 45.32087 | 12.85873 | 36043 ft | 504 kts | 69° |
| 2026-05-07 21:21 | 45.34414 | 12.95262 | 36038 ft | 503 kts | 69° |
| 2026-05-07 21:21 | 45.36731 | 13.04653 | 36040 ft | 503 kts | 69° |
| 2026-05-07 21:22 | 45.39032 | 13.14044 | 36039 ft | 503 kts | 70° |
| 2026-05-07 21:22 | 45.41314 | 13.23454 | 36042 ft | 503 kts | 70° |
| 2026-05-07 21:23 | 45.43581 | 13.32868 | 36048 ft | 503 kts | 70° |
| 2026-05-07 21:23 | 45.45840 | 13.42287 | 36052 ft | 503 kts | 70° |
| 2026-05-07 21:24 | 45.48096 | 13.51709 | 36048 ft | 503 kts | 70° |
| 2026-05-07 21:24 | 45.50337 | 13.61143 | 36048 ft | 503 kts | 70° |
| 2026-05-07 21:25 | 45.52575 | 13.70589 | 36049 ft | 503 kts | 70° |
| 2026-05-07 21:25 | 45.54810 | 13.80026 | 36050 ft | 502 kts | 70° |
| 2026-05-07 21:26 | 45.57031 | 13.89482 | 36054 ft | 502 kts | 70° |
| 2026-05-07 21:26 | 45.59243 | 13.98944 | 36060 ft | 502 kts | 70° |
| 2026-05-07 21:27 | 45.61453 | 14.08405 | 36067 ft | 502 kts | 70° |
| 2026-05-07 21:27 | 45.63636 | 14.17812 | 36073 ft | 502 kts | 71° |
| 2026-05-07 21:28 | 45.65822 | 14.27291 | 36083 ft | 502 kts | 71° |
| 2026-05-07 21:28 | 45.68004 | 14.36773 | 36086 ft | 502 kts | 71° |
| 2026-05-07 21:29 | 45.70187 | 14.46324 | 36086 ft | 502 kts | 71° |
| 2026-05-07 21:29 | 45.72338 | 14.55747 | 36083 ft | 502 kts | 71° |
| 2026-05-07 21:30 | 45.74499 | 14.65240 | 36084 ft | 502 kts | 71° |
| 2026-05-07 21:30 | 45.76649 | 14.74747 | 36086 ft | 502 kts | 71° |
| 2026-05-07 21:31 | 45.78786 | 14.84250 | 36080 ft | 501 kts | 71° |
| 2026-05-07 21:31 | 45.80910 | 14.93764 | 36078 ft | 501 kts | 71° |
| 2026-05-07 21:32 | 45.83032 | 15.03287 | 36075 ft | 501 kts | 71° |
| 2026-05-07 21:32 | 45.85148 | 15.12808 | 36076 ft | 501 kts | 71° |
| 2026-05-07 21:33 | 45.87259 | 15.22332 | 36077 ft | 501 kts | 72° |
| 2026-05-07 21:33 | 45.89355 | 15.31860 | 36083 ft | 501 kts | 72° |
| 2026-05-07 21:34 | 45.91437 | 15.41396 | 36085 ft | 501 kts | 72° |
| 2026-05-07 21:34 | 45.93518 | 15.50939 | 36083 ft | 501 kts | 72° |
| 2026-05-07 21:35 | 45.95591 | 15.60485 | 36085 ft | 501 kts | 72° |
| 2026-05-07 21:35 | 45.97650 | 15.70038 | 36075 ft | 500 kts | 72° |
| 2026-05-07 21:36 | 45.99709 | 15.79598 | 36071 ft | 500 kts | 72° |
| 2026-05-07 21:36 | 46.01755 | 15.89162 | 36066 ft | 500 kts | 72° |
| 2026-05-07 21:37 | 46.03793 | 15.98737 | 36072 ft | 501 kts | 72° |
| 2026-05-07 21:37 | 46.05830 | 16.08319 | 36071 ft | 500 kts | 73° |
| 2026-05-07 21:38 | 46.07855 | 16.17898 | 36072 ft | 500 kts | 73° |
| 2026-05-07 21:38 | 46.09865 | 16.27491 | 36069 ft | 500 kts | 73° |
| 2026-05-07 21:39 | 46.11850 | 16.37008 | 36068 ft | 499 kts | 73° |
| 2026-05-07 21:39 | 46.13854 | 16.46658 | 36066 ft | 499 kts | 73° |
| 2026-05-07 21:40 | 46.15824 | 16.56180 | 36067 ft | 499 kts | 73° |
| 2026-05-07 21:40 | 46.17803 | 16.65761 | 36071 ft | 498 kts | 73° |
| 2026-05-07 21:41 | 46.19772 | 16.75345 | 36068 ft | 498 kts | 74° |
| 2026-05-07 21:41 | 46.21722 | 16.84938 | 36069 ft | 498 kts | 74° |
| 2026-05-07 21:42 | 46.23782 | 16.94480 | 36065 ft | 498 kts | 67° |
| 2026-05-07 21:42 | 46.27167 | 17.03156 | 36063 ft | 496 kts | 55° |
| 2026-05-07 21:43 | 46.30958 | 17.11491 | 36060 ft | 496 kts | 56° |
| 2026-05-07 21:43 | 46.32845 | 17.15679 | 35957 ft | 497 kts | 56° |
| 2026-05-07 21:43 | 46.34730 | 17.19875 | 35707 ft | 497 kts | 56° |
| 2026-05-07 21:44 | 46.36612 | 17.24070 | 35466 ft | 497 kts | 56° |
| 2026-05-07 21:44 | 46.38470 | 17.28216 | 35221 ft | 497 kts | 56° |
| 2026-05-07 21:44 | 46.40379 | 17.32470 | 34970 ft | 498 kts | 56° |
| 2026-05-07 21:44 | 46.42270 | 17.36679 | 34693 ft | 498 kts | 56° |
| 2026-05-07 21:45 | 46.44147 | 17.40854 | 33583 ft | 507 kts | 56° |
| 2026-05-07 21:45 | 46.46084 | 17.45173 | 32531 ft | 513 kts | 56° |
| 2026-05-07 21:45 | 46.48038 | 17.49544 | 31370 ft | 521 kts | 56° |
| 2026-05-07 21:45 | 46.50019 | 17.53984 | 30335 ft | 526 kts | 56° |
| 2026-05-07 21:46 | 46.51999 | 17.58424 | 29623 ft | 521 kts | 56° |
| 2026-05-07 21:46 | 46.53954 | 17.62826 | 28889 ft | 516 kts | 56° |
| 2026-05-07 21:46 | 46.55886 | 17.67191 | 28168 ft | 511 kts | 57° |
| 2026-05-07 21:46 | 46.57799 | 17.71516 | 27455 ft | 507 kts | 57° |
| 2026-05-07 21:47 | 46.59694 | 17.75802 | 26810 ft | 500 kts | 57° |
| 2026-05-07 21:47 | 46.61567 | 17.80043 | 26104 ft | 496 kts | 57° |
| 2026-05-07 21:47 | 46.63419 | 17.84241 | 25452 ft | 491 kts | 57° |
| 2026-05-07 21:47 | 46.65255 | 17.88411 | 24897 ft | 485 kts | 58° |
| 2026-05-07 21:48 | 46.67066 | 17.92523 | 24334 ft | 480 kts | 58° |
| 2026-05-07 21:48 | 46.68848 | 17.96583 | 23603 ft | 471 kts | 58° |
| 2026-05-07 21:48 | 46.70592 | 18.00564 | 22718 ft | 458 kts | 58° |
| 2026-05-07 21:48 | 46.72270 | 18.04388 | 22238 ft | 438 kts | 58° |
| 2026-05-07 21:49 | 46.73874 | 18.08048 | 21721 ft | 421 kts | 58° |
| 2026-05-07 21:49 | 46.75420 | 18.11588 | 21232 ft | 405 kts | 58° |
| 2026-05-07 21:49 | 46.76915 | 18.15023 | 20779 ft | 402 kts | 58° |
| 2026-05-07 21:49 | 46.78407 | 18.18458 | 20270 ft | 401 kts | 59° |
| 2026-05-07 21:50 | 46.79895 | 18.21888 | 19801 ft | 399 kts | 59° |
| 2026-05-07 21:50 | 46.81378 | 18.25308 | 19297 ft | 399 kts | 59° |
| 2026-05-07 21:50 | 46.82862 | 18.28731 | 18793 ft | 399 kts | 59° |
| 2026-05-07 21:50 | 46.84348 | 18.32153 | 18254 ft | 399 kts | 58° |
| 2026-05-07 21:51 | 46.85833 | 18.35577 | 17698 ft | 398 kts | 59° |
| 2026-05-07 21:51 | 46.87308 | 18.38991 | 17179 ft | 397 kts | 58° |
| 2026-05-07 21:51 | 46.88778 | 18.42399 | 16652 ft | 395 kts | 58° |
| 2026-05-07 21:51 | 46.90244 | 18.45794 | 16124 ft | 394 kts | 58° |
| 2026-05-07 21:52 | 46.91708 | 18.49182 | 15601 ft | 393 kts | 58° |
| 2026-05-07 21:52 | 46.93165 | 18.52559 | 15076 ft | 392 kts | 58° |
| 2026-05-07 21:52 | 46.94617 | 18.55934 | 14552 ft | 391 kts | 58° |
| 2026-05-07 21:52 | 46.96062 | 18.59301 | 14027 ft | 390 kts | 58° |
| 2026-05-07 21:53 | 46.97500 | 18.62661 | 13454 ft | 389 kts | 58° |
| 2026-05-07 21:53 | 46.98933 | 18.66010 | 12921 ft | 386 kts | 58° |
| 2026-05-07 21:53 | 47.00351 | 18.69329 | 12383 ft | 383 kts | 58° |
| 2026-05-07 21:53 | 47.01759 | 18.72626 | 11840 ft | 380 kts | 58° |
| 2026-05-07 21:54 | 47.03157 | 18.75901 | 11286 ft | 377 kts | 58° |
| 2026-05-07 21:54 | 47.04541 | 18.79151 | 10747 ft | 374 kts | 58° |
| 2026-05-07 21:54 | 47.05903 | 18.82350 | 10483 ft | 363 kts | 58° |
| 2026-05-07 21:54 | 47.07217 | 18.85434 | 10356 ft | 349 kts | 58° |
| 2026-05-07 21:55 | 47.08477 | 18.88397 | 10234 ft | 336 kts | 57° |
| 2026-05-07 21:55 | 47.09690 | 18.91254 | 10108 ft | 325 kts | 57° |
| 2026-05-07 21:55 | 47.10862 | 18.94023 | 9990 ft | 314 kts | 58° |
| 2026-05-07 21:55 | 47.11999 | 18.96717 | 9680 ft | 307 kts | 57° |
| 2026-05-07 21:56 | 47.13118 | 18.99366 | 9047 ft | 304 kts | 57° |
| 2026-05-07 21:56 | 47.14224 | 19.01984 | 8402 ft | 300 kts | 57° |
| 2026-05-07 21:56 | 47.15318 | 19.04574 | 7773 ft | 296 kts | 57° |
| 2026-05-07 21:56 | 47.16394 | 19.07125 | 7191 ft | 291 kts | 57° |
| 2026-05-07 21:57 | 47.17451 | 19.09634 | 6657 ft | 286 kts | 57° |
| 2026-05-07 21:57 | 47.18488 | 19.12097 | 6086 ft | 281 kts | 57° |
| 2026-05-07 21:57 | 47.19515 | 19.14540 | 5672 ft | 280 kts | 57° |
| 2026-05-07 21:57 | 47.20532 | 19.16963 | 5298 ft | 277 kts | 57° |
| 2026-05-07 21:58 | 47.21541 | 19.19373 | 4914 ft | 275 kts | 57° |
| 2026-05-07 21:58 | 47.22527 | 19.21729 | 4754 ft | 264 kts | 57° |
| 2026-05-07 21:58 | 47.23458 | 19.23960 | 4624 ft | 247 kts | 57° |
| 2026-05-07 21:58 | 47.24328 | 19.26047 | 4447 ft | 232 kts | 57° |
| 2026-05-07 21:59 | 47.25143 | 19.28000 | 4346 ft | 217 kts | 57° |
| 2026-05-07 21:59 | 47.25923 | 19.29863 | 4254 ft | 210 kts | 56° |
| 2026-05-07 21:59 | 47.26654 | 19.31611 | 4170 ft | 192 kts | 56° |
| 2026-05-07 21:59 | 47.27423 | 19.33104 | 4055 ft | 177 kts | 41° |
| 2026-05-07 22:00 | 47.28317 | 19.34308 | 3784 ft | 171 kts | 39° |
| 2026-05-07 22:00 | 47.29183 | 19.35470 | 3501 ft | 166 kts | 39° |
| 2026-05-07 22:00 | 47.30010 | 19.36581 | 3254 ft | 161 kts | 39° |
| 2026-05-07 22:00 | 47.30823 | 19.37673 | 3004 ft | 156 kts | 39° |
| 2026-05-07 22:01 | 47.31710 | 19.38570 | 2780 ft | 150 kts | 19° |
| 2026-05-07 22:01 | 47.32701 | 19.38932 | 2558 ft | 145 kts | 360° |
| 2026-05-07 22:01 | 47.33362 | 19.38896 | 2421 ft | 143 kts | 347° |
| 2026-05-07 22:01 | 47.34598 | 19.38332 | 2149 ft | 140 kts | 337° |
| 2026-05-07 22:02 | 47.35221 | 19.38018 | 2034 ft | 140 kts | 338° |
| 2026-05-07 22:02 | 47.36446 | 19.37431 | 1849 ft | 139 kts | 339° |
| 2026-05-07 22:02 | 47.37360 | 19.36953 | 1805 ft | 139 kts | 329° |
| 2026-05-07 22:02 | 47.38120 | 19.36094 | 1681 ft | 137 kts | 311° |
| 2026-05-07 22:03 | 47.38767 | 19.35057 | 1480 ft | 137 kts | 310° |
| 2026-05-07 22:03 | 47.39206 | 19.34361 | 1369 ft | 137 kts | 311° |
| 2026-05-07 22:03 | 47.39852 | 19.33334 | 1192 ft | 139 kts | 312° |
| 2026-05-07 22:03 | 47.40512 | 19.32281 | 996 ft | 141 kts | 311° |
| 2026-05-07 22:04 | 47.41168 | 19.31205 | 783 ft | 141 kts | 311° |
| 2026-05-07 22:04 | 47.41831 | 19.30133 | 630 ft | 142 kts | 311° |
| 2026-05-07 22:04 | 47.42495 | 19.29063 | 477 ft | 141 kts | 312° |
| 2026-05-07 22:04 | 47.43110 | 19.28063 | 459 ft | 112 kts | 313° |
| 2026-05-07 22:05 | 47.43522 | 19.27405 | 472 ft | 62 kts | 312° |
| 2026-05-07 22:05 | 47.43720 | 19.27018 | 471 ft | 26 kts | 277° |
| 2026-05-07 22:05 | 47.43751 | 19.26860 | 467 ft | 13 kts | 288° |
| 2026-05-07 22:05 | 47.43777 | 19.26712 | 459 ft | 16 kts | 284° |
| 2026-05-07 22:06 | 47.43800 | 19.26542 | 459 ft | 11 kts | 279° |
| 2026-05-07 22:06 | 47.43772 | 19.26447 | 458 ft | 10 kts | 222° |
| 2026-05-07 22:06 | 47.43723 | 19.26379 | 457 ft | 9 kts | 223° |
| 2026-05-07 22:06 | 47.43680 | 19.26321 | 457 ft | 8 kts | 223° |
| 2026-05-07 22:07 | 47.43644 | 19.26272 | 456 ft | 6 kts | 222° |
| 2026-05-07 22:07 | 47.43610 | 19.26226 | 457 ft | 10 kts | 222° |
| 2026-05-07 22:07 | 47.43560 | 19.26166 | 457 ft | 7 kts | 203° |
| 2026-05-07 22:07 | 47.43517 | 19.26165 | 457 ft | 6 kts | 179° |
| 2026-05-07 22:08 | 47.43483 | 19.26166 | 457 ft | 4 kts | 178° |
| 2026-05-07 22:08 | 47.43466 | 19.26167 | 457 ft | 4 kts | 177° |
| 2026-05-07 22:08 | 47.43449 | 19.26169 | 457 ft | 0 kts | 176° |